createdAt,value
2022-10-11T00:01:33.926Z,97168.78
2022-10-11T00:04:00.453Z,97173.06
2022-10-11T00:06:26.943Z,97180.75
2022-10-11T00:08:53.297Z,97171.31
2022-10-11T00:11:19.687Z,97175.56
2022-10-11T00:13:46.085Z,97178.94
2022-10-11T00:16:14.095Z,97171.19
2022-10-11T00:18:40.969Z,97180.53
2022-10-11T00:21:11.667Z,97167.69
2022-10-11T00:23:38.446Z,97166.84
2022-10-11T00:26:07.877Z,97180.59
2022-10-11T00:28:35.596Z,97176.28
2022-10-11T00:31:05.119Z,97179.75
2022-10-11T00:33:31.748Z,97177.22
2022-10-11T00:35:59.886Z,97177.19
2022-10-11T00:38:26.351Z,97176.38
2022-10-11T00:40:52.735Z,97184.06
2022-10-11T00:43:22.624Z,97182.38
2022-10-11T00:45:58.180Z,97183.25
2022-10-11T00:48:42.722Z,97181.53
2022-10-11T00:51:18.309Z,97183.25
2022-10-11T00:53:48.215Z,97191.81
2022-10-11T00:56:26.384Z,97175.53
2022-10-11T00:58:55.921Z,97184.94
2022-10-11T01:01:22.329Z,97180.56
2022-10-11T01:03:48.889Z,97180.53
2022-10-11T01:06:15.268Z,97183.91
2022-10-11T01:08:41.851Z,97183.78
2022-10-11T01:11:16.476Z,97183.81
2022-10-11T01:13:48.526Z,97174.41
2022-10-11T01:16:33.914Z,97176.97
2022-10-11T01:19:15.426Z,97175.28
2022-10-11T01:21:51.848Z,97165.91
2022-10-11T01:24:49.479Z,97179.66
2022-10-11T01:27:34.645Z,97177.09
2022-10-11T01:30:33.011Z,97173.69
2022-10-11T01:32:59.290Z,97171.09
2022-10-11T01:35:31.148Z,97183.09
2022-10-11T01:38:08.023Z,97183.09
2022-10-11T01:40:43.874Z,97181.41
2022-10-11T01:43:10.357Z,97177.97
2022-10-11T01:45:37.743Z,97179.69
2022-10-11T01:48:12.507Z,97174.53
2022-10-11T01:50:58.696Z,97165.94
2022-10-11T01:53:45.324Z,97170.19
2022-10-11T01:56:39.332Z,97176.16
2022-10-11T01:59:28.449Z,97170.22
2022-10-11T02:02:04.902Z,97168.50
2022-10-11T02:04:44.337Z,97172.81
2022-10-11T02:07:28.060Z,97167.69
2022-10-11T02:10:10.365Z,97173.69
2022-10-11T02:12:42.369Z,97179.66
2022-10-11T02:15:11.398Z,97179.56
2022-10-11T02:17:47.861Z,97174.38
2022-10-11T02:20:19.968Z,97176.94
2022-10-11T02:22:51.219Z,97170.94
2022-10-11T02:25:22.954Z,97179.47
2022-10-11T02:27:51.872Z,97184.56
2022-10-11T02:30:18.371Z,97192.22
2022-10-11T02:32:47.783Z,97193.06
2022-10-11T02:35:14.575Z,97177.63
2022-10-11T02:37:43.870Z,97183.66
2022-10-11T02:40:19.927Z,97179.38
2022-10-11T02:43:01.887Z,97182.81
2022-10-11T02:45:37.880Z,97189.63
2022-10-11T02:48:06.466Z,97192.16
2022-10-11T02:50:33.317Z,97187.88
2022-10-11T02:52:59.650Z,97190.50
2022-10-11T02:55:26.095Z,97185.38
2022-10-11T02:57:52.455Z,97193.94
2022-10-11T03:00:18.960Z,97191.41
2022-10-11T03:02:45.315Z,97192.25
2022-10-11T03:05:11.752Z,97190.59
2022-10-11T03:07:38.172Z,97201.75
2022-10-11T03:10:06.002Z,97193.28
2022-10-11T03:12:32.898Z,97190.75
2022-10-11T03:14:59.252Z,97200.22
2022-10-11T03:17:41.270Z,97207.94
2022-10-11T03:20:08.080Z,97202.00
2022-10-11T03:22:34.708Z,97208.00
2022-10-11T03:25:04.114Z,97212.28
2022-10-11T03:27:32.613Z,97212.22
2022-10-11T03:29:59.452Z,97209.66
2022-10-11T03:32:26.132Z,97213.91
2022-10-11T03:34:52.548Z,97222.47
2022-10-11T03:37:18.899Z,97224.13
2022-10-11T03:39:45.750Z,97224.13
2022-10-11T03:42:13.124Z,97226.66
2022-10-11T03:44:39.665Z,97218.09
2022-10-11T03:47:06.065Z,97222.34
2022-10-11T03:49:32.393Z,97226.63
2022-10-11T03:51:59.106Z,97227.47
2022-10-11T03:54:25.781Z,97228.28
2022-10-11T03:56:52.363Z,97234.28
2022-10-11T03:59:18.708Z,97243.69
2022-10-11T04:01:45.076Z,97235.13
2022-10-11T04:04:11.667Z,97238.53
2022-10-11T04:06:37.998Z,97236.78
2022-10-11T04:09:04.442Z,97229.91
2022-10-11T04:11:30.783Z,97235.84
2022-10-11T04:13:57.191Z,97240.97
2022-10-11T04:16:23.554Z,97237.53
2022-10-11T04:18:49.907Z,97243.53
2022-10-11T04:21:16.337Z,97242.69
2022-10-11T04:23:42.743Z,97243.56
2022-10-11T04:26:09.237Z,97247.91
2022-10-11T04:28:36.125Z,97247.03
2022-10-11T04:31:04.953Z,97253.97
2022-10-11T04:33:31.300Z,97250.59
2022-10-11T04:35:57.632Z,97247.22
2022-10-11T04:38:24.413Z,97249.78
2022-10-11T04:40:51.089Z,97252.38
2022-10-11T04:43:18.557Z,97254.09
2022-10-11T04:45:45.039Z,97256.69
2022-10-11T04:48:11.377Z,97260.16
2022-10-11T04:50:37.779Z,97266.19
2022-10-11T04:53:04.119Z,97260.22
2022-10-11T04:55:30.483Z,97263.59
2022-10-11T04:57:56.876Z,97260.13
2022-10-11T05:00:23.355Z,97257.50
2022-10-11T05:02:49.710Z,97261.69
2022-10-11T05:05:17.571Z,97263.34
2022-10-11T05:07:44.269Z,97265.88
2022-10-11T05:10:10.940Z,97268.47
2022-10-11T05:12:37.316Z,97270.16
2022-10-11T05:15:04.272Z,97277.06
2022-10-11T05:17:32.168Z,97277.09
2022-10-11T05:19:58.577Z,97275.47
2022-10-11T05:22:25.052Z,97272.03
2022-10-11T05:24:51.447Z,97276.38
2022-10-11T05:27:17.776Z,97281.50
2022-10-11T05:29:44.113Z,97280.63
2022-10-11T05:32:10.627Z,97283.19
2022-10-11T05:34:36.950Z,97287.50
2022-10-11T05:37:03.350Z,97287.56
2022-10-11T05:39:29.743Z,97289.28
2022-10-11T05:41:56.090Z,97287.56
2022-10-11T05:44:22.997Z,97289.31
2022-10-11T05:46:49.439Z,97292.78
2022-10-11T05:49:15.757Z,97297.13
2022-10-11T05:51:42.136Z,97302.31
2022-10-11T05:54:08.455Z,97310.88
2022-10-11T05:56:34.854Z,97310.88
2022-10-11T05:59:02.555Z,97317.69
2022-10-11T06:01:29.347Z,97310.78
2022-10-11T06:03:55.966Z,97321.13
2022-10-11T06:06:22.804Z,97313.38
2022-10-11T06:08:50.252Z,97320.22
2022-10-11T06:11:22.596Z,97324.53
2022-10-11T06:13:49.031Z,97321.13
2022-10-11T06:16:16.030Z,97314.25
2022-10-11T06:18:42.394Z,97324.53
2022-10-11T06:21:08.915Z,97330.50
2022-10-11T06:23:35.240Z,97339.94
2022-10-11T06:26:05.793Z,97338.31
2022-10-11T06:28:33.429Z,97335.75
2022-10-11T06:31:00.021Z,97337.56
2022-10-11T06:33:26.999Z,97347.06
2022-10-11T06:36:01.824Z,97356.53
2022-10-11T06:38:28.496Z,97348.03
2022-10-11T06:40:54.906Z,97355.84
2022-10-11T06:43:21.372Z,97349.88
2022-10-11T06:45:47.709Z,97357.56
2022-10-11T06:48:14.258Z,97367.00
2022-10-11T06:50:58.988Z,97369.50
2022-10-11T06:53:26.896Z,97375.44
2022-10-11T06:55:53.284Z,97373.69
2022-10-11T06:58:19.646Z,97374.53
2022-10-11T07:00:46.009Z,97376.16
2022-10-11T07:03:12.432Z,97377.84
2022-10-11T07:05:38.804Z,97381.31
2022-10-11T07:08:05.210Z,97388.13
2022-10-11T07:10:31.552Z,97383.00
2022-10-11T07:12:57.911Z,97385.63
2022-10-11T07:15:24.280Z,97392.56
2022-10-11T07:17:50.614Z,97395.16
2022-10-11T07:20:17.005Z,97395.19
2022-10-11T07:22:43.380Z,97398.69
2022-10-11T07:25:09.781Z,97396.97
2022-10-11T07:27:36.168Z,97409.03
2022-10-11T07:30:02.648Z,97415.09
2022-10-11T07:32:28.991Z,97410.88
2022-10-11T07:34:56.467Z,97409.19
2022-10-11T07:37:22.862Z,97404.09
2022-10-11T07:39:49.554Z,97407.53
2022-10-11T07:42:15.968Z,97405.88
2022-10-11T07:44:42.324Z,97408.44
2022-10-11T07:47:11.204Z,97414.47
2022-10-11T07:49:37.959Z,97420.47
2022-10-11T07:52:04.818Z,97417.88
2022-10-11T07:54:32.665Z,97422.16
2022-10-11T07:56:59.135Z,97420.41
2022-10-11T07:59:25.487Z,97423.00
2022-10-11T08:01:51.895Z,97423.00
2022-10-11T08:04:18.338Z,97419.56
2022-10-11T08:06:44.663Z,97421.34
2022-10-11T08:09:12.099Z,97423.91
2022-10-11T08:11:39.255Z,97424.81
2022-10-11T08:14:08.992Z,97423.09
2022-10-11T08:16:36.407Z,97422.22
2022-10-11T08:19:03.254Z,97423.91
2022-10-11T08:21:30.284Z,97423.09
2022-10-11T08:23:56.805Z,97423.19
2022-10-11T08:26:23.311Z,97424.94
2022-10-11T08:28:49.787Z,97420.66
2022-10-11T08:31:16.764Z,97431.03
2022-10-11T08:33:43.599Z,97427.59
2022-10-11T08:36:10.766Z,97429.34
2022-10-11T08:38:38.204Z,97432.75
2022-10-11T08:41:23.766Z,97434.50
2022-10-11T08:44:00.890Z,97439.63
2022-10-11T08:46:33.233Z,97439.59
2022-10-11T08:49:01.653Z,97437.84
2022-10-11T08:51:32.345Z,97440.44
2022-10-11T08:54:18.842Z,97448.16
2022-10-11T08:56:46.011Z,97448.16
2022-10-11T08:59:12.369Z,97449.88
2022-10-11T09:02:15.086Z,97447.28
2022-10-11T09:04:41.503Z,97444.72
2022-10-11T09:07:19.237Z,97451.59
2022-10-11T09:10:25.470Z,97449.06
2022-10-11T09:13:10.264Z,97443.91
2022-10-11T09:15:58.236Z,97439.63
2022-10-11T09:18:48.055Z,97440.47
2022-10-11T09:21:44.278Z,97446.50
2022-10-11T09:24:39.698Z,97443.94
2022-10-11T09:27:50.267Z,97446.50
2022-10-11T09:30:16.555Z,97438.81
2022-10-11T09:32:47.636Z,97437.94
2022-10-11T09:35:19.842Z,97440.53
2022-10-11T09:37:59.404Z,97449.09
2022-10-11T09:40:44.681Z,97444.81
2022-10-11T09:43:11.260Z,97439.66
2022-10-11T09:45:38.652Z,97444.84
2022-10-11T09:48:07.172Z,97437.09
2022-10-11T09:50:34.319Z,97443.97
2022-10-11T09:53:05.010Z,97445.69
2022-10-11T09:55:39.392Z,97449.13
2022-10-11T09:58:24.595Z,97444.81
2022-10-11T10:01:07.595Z,97446.53
2022-10-11T10:03:40.696Z,97446.53
2022-10-11T10:06:24.925Z,97454.28
2022-10-11T10:08:51.650Z,97451.66
2022-10-11T10:11:19.179Z,97448.22
2022-10-11T10:13:51.520Z,97449.03
2022-10-11T10:16:33.823Z,97447.31
2022-10-11T10:19:01.667Z,97448.16
2022-10-11T10:21:35.804Z,97436.03
2022-10-11T10:24:29.766Z,97440.25
2022-10-11T10:27:14.340Z,97441.06
2022-10-11T10:29:41.307Z,97441.06
2022-10-11T10:32:20.737Z,97453.94
2022-10-11T10:34:56.712Z,97443.63
2022-10-11T10:37:38.668Z,97447.09
2022-10-11T10:40:14.256Z,97444.41
2022-10-11T10:42:40.617Z,97449.50
2022-10-11T10:45:20.120Z,97446.78
2022-10-11T10:48:16.661Z,97441.72
2022-10-11T10:51:00.960Z,97437.31
2022-10-11T10:53:49.471Z,97444.09
2022-10-11T10:56:22.789Z,97439.75
2022-10-11T10:59:14.054Z,97436.34
2022-10-11T11:01:54.291Z,97434.47
2022-10-11T11:04:32.024Z,97433.56
2022-10-11T11:07:22.334Z,97427.59
2022-10-11T11:09:56.598Z,97432.94
2022-10-11T11:12:28.949Z,97422.03
2022-10-11T11:15:27.155Z,97422.09
2022-10-11T11:18:16.707Z,97428.19
2022-10-11T11:20:59.971Z,97426.97
2022-10-11T11:23:44.842Z,97427.94
2022-10-11T11:26:37.130Z,97430.69
2022-10-11T11:29:16.219Z,97437.78
2022-10-11T11:32:17.315Z,97435.28
2022-10-11T11:34:48.245Z,97437.94
2022-10-11T11:37:30.902Z,97435.38
2022-10-11T11:40:02.491Z,97427.63
2022-10-11T11:42:54.172Z,97432.75
2022-10-11T11:45:23.243Z,97432.75
2022-10-11T11:48:20.296Z,97426.75
2022-10-11T11:50:55.264Z,97426.06
2022-10-11T11:53:42.218Z,97428.69
2022-10-11T11:56:33.078Z,97434.00
2022-10-11T11:59:17.664Z,97433.16
2022-10-11T12:02:02.156Z,97430.53
2022-10-11T12:04:34.409Z,97435.72
2022-10-11T12:07:18.571Z,97433.16
2022-10-11T12:09:50.445Z,97430.59
2022-10-11T12:12:37.308Z,97430.63
2022-10-11T12:15:21.031Z,97433.28
2022-10-11T12:17:53.134Z,97426.44
2022-10-11T12:20:27.232Z,97426.50
2022-10-11T12:22:58.233Z,97425.66
2022-10-11T12:25:28.377Z,97422.25
2022-10-11T12:27:57.511Z,97424.84
2022-10-11T12:30:42.541Z,97421.44
2022-10-11T12:33:25.691Z,97416.22
2022-10-11T12:35:54.878Z,97422.25
2022-10-11T12:38:24.195Z,97420.53
2022-10-11T12:40:54.234Z,97419.66
2022-10-11T12:43:27.591Z,97414.47
2022-10-11T12:45:54.049Z,97412.72
2022-10-11T12:48:43.437Z,97415.34
2022-10-11T12:51:15.473Z,97419.63
2022-10-11T12:54:25.433Z,97418.75
2022-10-11T12:57:27.864Z,97427.38
2022-10-11T12:59:54.475Z,97425.66
2022-10-11T13:02:29.818Z,97417.94
2022-10-11T13:05:19.380Z,97417.94
2022-10-11T13:07:46.473Z,97419.66
2022-10-11T13:10:19.875Z,97420.47
2022-10-11T13:12:48.500Z,97423.94
2022-10-11T13:15:18.626Z,97423.91
2022-10-11T13:17:45.429Z,97416.97
2022-10-11T13:20:18.111Z,97416.06
2022-10-11T13:22:50.689Z,97428.03
2022-10-11T13:25:29.170Z,97418.53
2022-10-11T13:27:57.687Z,97420.22
2022-10-11T13:30:35.075Z,97421.78
2022-10-11T13:33:08.491Z,97421.78
2022-10-11T13:35:37.176Z,97414.88
2022-10-11T13:38:07.881Z,97416.56
2022-10-11T13:40:35.707Z,97419.09
2022-10-11T13:43:05.091Z,97419.06
2022-10-11T13:45:32.658Z,97413.88
2022-10-11T13:47:59.107Z,97415.56
2022-10-11T13:50:34.397Z,97408.59
2022-10-11T13:53:02.214Z,97413.78
2022-10-11T13:55:33.688Z,97411.19
2022-10-11T13:58:03.676Z,97405.97
2022-10-11T14:00:37.311Z,97405.84
2022-10-11T14:03:12.520Z,97404.13
2022-10-11T14:05:42.354Z,97404.19
2022-10-11T14:08:38.823Z,97404.19
2022-10-11T14:11:07.567Z,97399.06
2022-10-11T14:13:45.871Z,97405.91
2022-10-11T14:16:28.230Z,97399.00
2022-10-11T14:19:00.329Z,97396.38
2022-10-11T14:21:31.395Z,97391.94
2022-10-11T14:24:10.408Z,97402.28
2022-10-11T14:26:40.217Z,97396.34
2022-10-11T14:29:12.121Z,97397.13
2022-10-11T14:31:42.017Z,97398.78
2022-10-11T14:34:16.528Z,97396.38
2022-10-11T14:36:42.861Z,97398.19
2022-10-11T14:39:14.702Z,97391.13
2022-10-11T14:41:41.051Z,97396.41
2022-10-11T14:44:07.404Z,97390.44
2022-10-11T14:46:35.776Z,97395.72
2022-10-11T14:49:02.288Z,97396.56
2022-10-11T14:51:34.250Z,97389.00
2022-10-11T14:54:00.579Z,97394.28
2022-10-11T14:56:26.902Z,97400.47
2022-10-11T14:58:53.338Z,97393.53
2022-10-11T15:01:19.775Z,97397.13
2022-10-11T15:03:46.194Z,97401.47
2022-10-11T15:06:34.040Z,97395.47
2022-10-11T15:09:00.456Z,97385.97
2022-10-11T15:11:26.807Z,97379.00
2022-10-11T15:13:53.263Z,97393.59
2022-10-11T15:16:20.942Z,97391.75
2022-10-11T15:18:51.049Z,97379.69
2022-10-11T15:21:22.954Z,97393.38
2022-10-11T15:23:50.728Z,97386.38
2022-10-11T15:26:19.756Z,97390.72
2022-10-11T15:28:47.233Z,97399.34
2022-10-11T15:31:13.979Z,97394.16
2022-10-11T15:33:41.187Z,97394.25
2022-10-11T15:36:12.438Z,97396.94
2022-10-11T15:38:38.910Z,97392.72
2022-10-11T15:41:05.417Z,97385.13
2022-10-11T15:43:31.889Z,97386.03
2022-10-11T15:45:58.399Z,97392.13
2022-10-11T15:48:26.789Z,97391.31
2022-10-11T15:50:54.149Z,97387.91
2022-10-11T15:53:24.599Z,97394.81
2022-10-11T15:55:53.338Z,97389.69
2022-10-11T15:58:32.605Z,97394.91
2022-10-11T16:01:05.328Z,97387.19
2022-10-11T16:03:33.196Z,97400.09
2022-10-11T16:06:04.842Z,97396.69
2022-10-11T16:08:32.267Z,97394.97
2022-10-11T16:10:59.331Z,97396.66
2022-10-11T16:13:25.668Z,97400.13
2022-10-11T16:15:52.108Z,97399.25
2022-10-11T16:18:20.144Z,97396.66
2022-10-11T16:20:48.872Z,97398.38
2022-10-11T16:23:15.630Z,97397.47
2022-10-11T16:25:42.358Z,97395.75
2022-10-11T16:28:10.151Z,97394.88
2022-10-11T16:30:42.985Z,97387.97
2022-10-11T16:33:09.514Z,97394.81
2022-10-11T16:35:36.048Z,97394.81
2022-10-11T16:38:02.602Z,97393.94
2022-10-11T16:40:29.985Z,97400.78
2022-10-11T16:42:56.373Z,97405.06
2022-10-11T16:45:22.862Z,97404.16
2022-10-11T16:47:50.121Z,97410.19
2022-10-11T16:50:16.543Z,97401.56
2022-10-11T16:52:44.150Z,97405.84
2022-10-11T16:55:10.537Z,97405.81
2022-10-11T16:57:37.779Z,97408.41
2022-10-11T17:00:09.246Z,97408.38
2022-10-11T17:02:35.931Z,97410.94
2022-10-11T17:05:02.434Z,97416.91
2022-10-11T17:07:29.475Z,97411.72
2022-10-11T17:09:56.023Z,97412.56
2022-10-11T17:12:23.516Z,97423.69
2022-10-11T17:14:50.986Z,97420.19
2022-10-11T17:17:17.961Z,97414.19
2022-10-11T17:19:45.553Z,97418.44
2022-10-11T17:22:14.154Z,97414.97
2022-10-11T17:24:40.594Z,97424.34
2022-10-11T17:27:07.491Z,97419.13
2022-10-11T17:29:33.992Z,97414.75
2022-10-11T17:32:00.663Z,97422.47
2022-10-11T17:34:27.501Z,97418.16
2022-10-11T17:36:54.099Z,97425.84
2022-10-11T17:39:22.842Z,97426.72
2022-10-11T17:41:49.855Z,97418.09
2022-10-11T17:44:19.299Z,97430.06
2022-10-11T17:46:46.966Z,97430.88
2022-10-11T17:49:13.809Z,97425.66
2022-10-11T17:51:42.992Z,97424.78
2022-10-11T17:54:12.971Z,97432.47
2022-10-11T17:56:41.300Z,97419.56
2022-10-11T17:59:10.942Z,97428.91
2022-10-11T18:01:37.392Z,97428.88
2022-10-11T18:04:06.034Z,97423.66
2022-10-11T18:06:38.887Z,97427.06
2022-10-11T18:09:05.326Z,97428.75
2022-10-11T18:11:31.971Z,97423.59
2022-10-11T18:13:58.362Z,97422.72
2022-10-11T18:16:29.538Z,97423.50
2022-10-11T18:18:57.310Z,97417.50
2022-10-11T18:21:34.227Z,97418.34
2022-10-11T18:24:08.755Z,97415.72
2022-10-11T18:26:35.300Z,97415.66
2022-10-11T18:29:01.663Z,97403.69
2022-10-11T18:31:30.451Z,97410.53
2022-10-11T18:33:58.405Z,97413.03
2022-10-11T18:36:26.859Z,97421.53
2022-10-11T18:38:55.682Z,97413.75
2022-10-11T18:41:24.090Z,97412.88
2022-10-11T18:43:52.920Z,97412.00
2022-10-11T18:46:20.159Z,97417.09
2022-10-11T18:48:48.582Z,97416.25
2022-10-11T18:51:20.691Z,97413.69
2022-10-11T18:53:48.026Z,97413.66
2022-10-11T18:56:16.955Z,97414.47
2022-10-11T18:58:44.505Z,97413.59
2022-10-11T19:01:15.836Z,97410.06
2022-10-11T19:03:43.403Z,97407.44
2022-10-11T19:06:18.462Z,97417.63
2022-10-11T19:08:46.643Z,97416.75
2022-10-11T19:11:15.597Z,97414.97
2022-10-11T19:13:43.066Z,97423.47
2022-10-11T19:16:15.135Z,97416.56
2022-10-11T19:18:44.431Z,97409.63
2022-10-11T19:21:12.750Z,97419.00
2022-10-11T19:23:44.169Z,97423.22
2022-10-11T19:26:26.931Z,97421.47
2022-10-11T19:29:18.848Z,97415.44
2022-10-11T19:31:48.251Z,97417.06
2022-10-11T19:34:15.167Z,97416.16
2022-10-11T19:36:42.742Z,97416.13
2022-10-11T19:39:14.194Z,97421.22
2022-10-11T19:41:41.640Z,97419.47
2022-10-11T19:44:07.987Z,97428.84
2022-10-11T19:49:24.642Z,97427.97
2022-10-11T19:51:52.008Z,97433.94
2022-10-11T19:54:18.530Z,97433.94
2022-10-11T19:56:45.083Z,97433.88
2022-10-11T19:59:11.967Z,97438.97
2022-10-11T20:01:39.665Z,97441.47
2022-10-11T20:04:08.511Z,97436.25
2022-10-11T20:06:38.627Z,97439.59
2022-10-11T20:09:27.939Z,97441.28
2022-10-11T20:11:54.628Z,97451.50
2022-10-11T20:14:21.197Z,97446.38
2022-10-11T20:16:49.823Z,97441.19
2022-10-11T20:19:16.409Z,97447.16
2022-10-11T20:21:42.741Z,97450.50
2022-10-11T20:24:09.475Z,97444.56
2022-10-11T20:26:35.832Z,97453.06
2022-10-11T20:29:02.197Z,97453.91
2022-10-11T20:31:32.774Z,97456.56
2022-10-11T20:34:02.072Z,97454.94
2022-10-11T20:36:30.061Z,97456.72
2022-10-11T20:38:57.939Z,97448.22
2022-10-11T20:41:27.305Z,97449.97
2022-10-11T20:43:56.031Z,97460.25
2022-10-11T20:46:26.180Z,97457.75
2022-10-11T20:49:00.403Z,97456.91
2022-10-11T20:51:29.788Z,97457.00
2022-10-11T20:53:56.467Z,97452.72
2022-10-11T20:56:23.484Z,97463.00
2022-10-11T20:58:52.394Z,97455.34
2022-10-11T21:01:26.294Z,97456.25
2022-10-11T21:03:53.475Z,97455.38
2022-10-11T21:06:19.855Z,97456.25
2022-10-11T21:08:46.185Z,97453.72
2022-10-11T21:11:12.527Z,97449.44
2022-10-11T21:13:39.001Z,97446.88
2022-10-11T21:16:06.839Z,97455.47
2022-10-11T21:18:35.349Z,97450.34
2022-10-11T21:21:09.925Z,97449.47
2022-10-11T21:23:36.536Z,97447.78
2022-10-11T21:26:04.815Z,97446.94
2022-10-11T21:28:31.339Z,97452.09
2022-10-11T21:31:10.380Z,97446.13
2022-10-11T21:33:37.186Z,97446.91
2022-10-11T21:36:12.367Z,97442.63
2022-10-11T21:38:39.258Z,97449.44
2022-10-11T21:41:07.523Z,97441.72
2022-10-11T21:43:35.667Z,97446.75
2022-10-11T21:46:13.876Z,97444.19
2022-10-11T21:48:40.379Z,97435.66
2022-10-11T21:51:07.336Z,97441.59
2022-10-11T21:53:33.905Z,97430.44
2022-10-11T21:56:01.166Z,97436.41
2022-10-11T21:58:27.936Z,97433.75
2022-10-11T22:00:54.663Z,97435.47
2022-10-11T22:03:21.054Z,97423.44
2022-10-11T22:05:47.824Z,97440.47
2022-10-11T22:08:14.928Z,97434.50
2022-10-11T22:10:51.638Z,97430.16
2022-10-11T22:13:17.978Z,97434.38
2022-10-11T22:15:44.348Z,97436.06
2022-10-11T22:18:10.757Z,97436.13
2022-10-11T22:20:37.134Z,97439.56
2022-10-11T22:23:03.674Z,97437.81
2022-10-11T22:25:30.539Z,97436.16
2022-10-11T22:27:56.881Z,97426.69
2022-10-11T22:30:23.215Z,97436.13
2022-10-11T22:32:51.392Z,97432.66
2022-10-11T22:35:18.292Z,97436.03
2022-10-11T22:37:44.632Z,97431.69
2022-10-11T22:40:11.276Z,97425.72
2022-10-11T22:42:37.845Z,97420.53
2022-10-11T22:45:05.072Z,97423.06
2022-10-11T22:47:31.390Z,97426.47
2022-10-11T22:49:57.739Z,97425.53
2022-10-11T22:52:24.076Z,97422.97
2022-10-11T22:54:50.475Z,97425.38
2022-10-11T22:57:16.789Z,97429.53
2022-10-11T22:59:43.097Z,97424.28
2022-10-11T23:02:09.438Z,97423.34
2022-10-11T23:04:35.767Z,97425.88
2022-10-11T23:07:04.949Z,97422.38
2022-10-11T23:09:31.722Z,97421.47
2022-10-11T23:11:59.085Z,97417.97
2022-10-11T23:14:25.458Z,97417.06
2022-10-11T23:16:52.303Z,97419.63
2022-10-11T23:19:19.008Z,97415.25
2022-10-11T23:21:45.361Z,97421.19
2022-10-11T23:24:11.735Z,97428.78
2022-10-11T23:26:38.191Z,97425.38
2022-10-11T23:29:04.511Z,97423.63
2022-10-11T23:31:30.869Z,97429.53
2022-10-11T23:33:57.518Z,97428.66
2022-10-11T23:36:25.731Z,97434.56
2022-10-11T23:38:57.247Z,97431.16
2022-10-11T23:41:25.731Z,97438.91
2022-10-11T23:43:52.243Z,97439.84
2022-10-11T23:46:18.925Z,97441.66
2022-10-11T23:48:45.248Z,97434.09
2022-10-11T23:51:11.729Z,97431.66
2022-10-11T23:53:38.130Z,97434.31
2022-10-11T23:56:05.476Z,97433.56
2022-10-11T23:58:31.836Z,97430.25
